Marv Dasht, Iran
Current Conditions -  °F | °C
As of 8:00 AM on Monday 24 Nov 2014 (Local Time) from OISS Reporting Station
Haze Haze  
Wind Chill: 46°   Ceiling: 10000
Heat Index: 46°   Visibility: 3mi
Dew Point: 45°   Wind: 0mph
Humidity: 93%   Direction: NA
Pressure: 30.12"   Gusts: NA
Location:  29.8°N, 52.83°E
Report Text: OISS 240400Z 00000KT 5000 BR FEW040 BKN100 08/07 Q1020 A3013
Loading
Personal Weather Stations






























Interactive Weather Map New forecast layout! Learn more

10-Day Weather Forecast

Advertisements
Track Severe Weather on mobile